Time;durP1;ratioP1;P1;durP2;ratioP2;P2;SDS_P1;SDS_P2;PMS_P1;PMS_P2;Temp;Humidity;BMP_temperature;BMP_pressure;BME280_temperature;BME280_humidity;BME280_pressure;Samples;Min_cycle;Max_cycle;Signal;HPM_P1;HPM_P2
2022/01/05 00:01:59;;;;;;;0.62;0.62;;;;;;;;;;1764096;79;26337;-35
2022/01/05 00:04:27;;;;;;;0.40;0.40;;;;;;;;;;1763270;80;26779;-35
2022/01/05 00:06:54;;;;;;;0.42;0.40;;;;;;;;;;1753515;79;26294;-37
2022/01/05 00:09:21;;;;;;;0.50;0.50;;;;;;;;;;1761465;79;26225;-34
2022/01/05 00:11:48;;;;;;;1.10;0.60;;;;;;;;;;1759296;80;26290;-33
2022/01/05 00:14:16;;;;;;;1.75;0.55;;;;;;;;;;1758039;80;26400;-34
2022/01/05 00:16:43;;;;;;;1.55;0.45;;;;;;;;;;1759013;79;26353;-32
2022/01/05 00:19:10;;;;;;;0.68;0.53;;;;;;;;;;1758791;79;26302;-37
2022/01/05 00:21:40;;;;;;;2.08;0.68;;;;;;;;;;1762813;80;26306;-31
2022/01/05 00:24:07;;;;;;;0.65;0.60;;;;;;;;;;1764374;80;26337;-33
2022/01/05 00:26:35;;;;;;;0.40;0.40;;;;;;;;;;1764974;80;26227;-34
2022/01/05 00:29:03;;;;;;;0.50;0.50;;;;;;;;;;1759006;80;26317;-35
2022/01/05 00:31:30;;;;;;;0.40;0.40;;;;;;;;;;1762173;80;26740;-37
2022/01/05 00:33:58;;;;;;;1.25;0.40;;;;;;;;;;1760362;80;26349;-32
2022/01/05 00:36:25;;;;;;;0.40;0.40;;;;;;;;;;1766133;80;26291;-33
2022/01/05 00:38:54;;;;;;;1.42;0.50;;;;;;;;;;1756949;80;26374;-33
2022/01/05 00:41:21;;;;;;;0.60;0.50;;;;;;;;;;1764031;80;26308;-33
2022/01/05 00:43:48;;;;;;;0.40;0.40;;;;;;;;;;1760562;80;26234;-35
2022/01/05 00:46:16;;;;;;;0.75;0.37;;;;;;;;;;1759996;80;26484;-34
2022/01/05 00:48:43;;;;;;;0.85;0.53;;;;;;;;;;1766218;79;26310;-32
2022/01/05 00:51:11;;;;;;;0.40;0.40;;;;;;;;;;1764148;80;26327;-38
2022/01/05 00:53:39;;;;;;;0.40;0.40;;;;;;;;;;1760573;80;26334;-32
2022/01/05 00:56:06;;;;;;;1.47;0.47;;;;;;;;;;1757861;80;26377;-36
2022/01/05 00:58:33;;;;;;;0.33;0.33;;;;;;;;;;1764963;80;26904;-35
2022/01/05 01:01:02;;;;;;;0.50;0.50;;;;;;;;;;1774717;79;26315;-34
2022/01/05 01:03:30;;;;;;;0.53;0.40;;;;;;;;;;1773856;79;26415;-33
2022/01/05 01:05:59;;;;;;;1.55;0.40;;;;;;;;;;1769208;79;25670;-34
2022/01/05 01:08:27;;;;;;;0.45;0.45;;;;;;;;;;1779925;79;26748;-31
2022/01/05 01:10:54;;;;;;;0.82;0.40;;;;;;;;;;1777939;79;26271;-34
2022/01/05 01:13:22;;;;;;;0.50;0.50;;;;;;;;;;1774356;79;26326;-33
2022/01/05 01:15:50;;;;;;;0.95;0.70;;;;;;;;;;1774704;79;26755;-33
2022/01/05 01:18:18;;;;;;;0.60;0.60;;;;;;;;;;1783311;79;26739;-31
2022/01/05 01:20:47;;;;;;;0.50;0.50;;;;;;;;;;1782537;79;26410;-36
2022/01/05 01:23:18;;;;;;;0.47;0.47;;;;;;;;;;1780235;79;26321;-35
2022/01/05 01:25:45;;;;;;;0.53;0.47;;;;;;;;;;1783981;79;26879;-37
2022/01/05 01:28:12;;;;;;;0.40;0.40;;;;;;;;;;1776622;79;26271;-36
2022/01/05 01:30:39;;;;;;;0.45;0.45;;;;;;;;;;1782310;79;26317;-34
2022/01/05 01:33:07;;;;;;;0.75;0.50;;;;;;;;;;1781863;79;26275;-33
2022/01/05 01:35:34;;;;;;;1.02;0.40;;;;;;;;;;1778042;79;26318;-34
2022/01/05 01:38:01;;;;;;;0.50;0.50;;;;;;;;;;1781971;79;26295;-34
2022/01/05 01:40:29;;;;;;;0.50;0.40;;;;;;;;;;1778274;79;26608;-33
2022/01/05 01:42:56;;;;;;;0.35;0.35;;;;;;;;;;1771229;79;26226;-31
2022/01/05 01:45:23;;;;;;;0.55;0.55;;;;;;;;;;1782277;79;26329;-31
2022/01/05 01:47:51;;;;;;;0.30;0.30;;;;;;;;;;1770518;79;26745;-33
2022/01/05 01:50:18;;;;;;;0.60;0.60;;;;;;;;;;1789615;79;26290;-32
2022/01/05 01:52:46;;;;;;;0.85;0.40;;;;;;;;;;1787807;79;26333;-31
2022/01/05 01:55:13;;;;;;;1.52;0.42;;;;;;;;;;1783063;79;26754;-32
2022/01/05 01:57:42;;;;;;;0.40;0.40;;;;;;;;;;1782896;79;26294;-35
2022/01/05 02:00:10;;;;;;;0.47;0.47;;;;;;;;;;1791835;79;26346;-33
2022/01/05 02:02:38;;;;;;;0.40;0.40;;;;;;;;;;1757794;77;27149;-32
2022/01/05 02:05:06;;;;;;;0.45;0.45;;;;;;;;;;1748725;80;26290;-34
2022/01/05 02:07:33;;;;;;;0.37;0.37;;;;;;;;;;1769427;80;27898;-35
2022/01/05 02:10:01;;;;;;;0.17;0.17;;;;;;;;;;1785777;79;26709;-32
2022/01/05 02:12:29;;;;;;;1.32;0.45;;;;;;;;;;1762811;80;26252;-33
2022/01/05 02:14:57;;;;;;;2.87;0.50;;;;;;;;;;1759179;80;26315;-33
2022/01/05 02:17:41;;;;;;;0.68;0.60;;;;;;;;;;1743446;80;26299;-33
2022/01/05 02:19:53;;;;;;;0.33;0.30;;;;;;;;;;1748542;80;26395;-31
2022/01/05 02:22:21;;;;;;;0.50;0.50;;;;;;;;;;1765378;80;26272;-34
2022/01/05 02:24:48;;;;;;;0.37;0.37;;;;;;;;;;1765795;80;26276;-32
2022/01/05 02:27:16;;;;;;;1.55;0.40;;;;;;;;;;1770847;80;26244;-32
2022/01/05 02:29:44;;;;;;;0.30;0.30;;;;;;;;;;1758833;80;26369;-33
2022/01/05 02:32:12;;;;;;;0.57;0.57;;;;;;;;;;1767912;80;26283;-33
2022/01/05 02:34:39;;;;;;;0.33;0.30;;;;;;;;;;1754227;80;26295;-31
2022/01/05 02:37:07;;;;;;;0.40;0.40;;;;;;;;;;1766047;80;26259;-34
2022/01/05 02:39:34;;;;;;;0.50;0.50;;;;;;;;;;1755609;80;26334;-33
2022/01/05 02:42:01;;;;;;;0.40;0.40;;;;;;;;;;1771067;81;26272;-32
2022/01/05 02:44:29;;;;;;;0.30;0.30;;;;;;;;;;1750219;80;26348;-32
2022/01/05 02:46:56;;;;;;;0.30;0.30;;;;;;;;;;1763788;80;26278;-33
2022/01/05 02:49:23;;;;;;;0.30;0.30;;;;;;;;;;1786769;79;26604;-32
2022/01/05 02:51:50;;;;;;;0.60;0.60;;;;;;;;;;1766069;79;26228;-33
2022/01/05 02:54:18;;;;;;;0.40;0.40;;;;;;;;;;1746907;80;26314;-34
2022/01/05 02:56:45;;;;;;;0.40;0.40;;;;;;;;;;1761458;80;26683;-35
2022/01/05 02:59:12;;;;;;;0.40;0.40;;;;;;;;;;1755965;79;26940;-34
2022/01/05 03:01:40;;;;;;;0.30;0.30;;;;;;;;;;1767863;78;26345;-33
2022/01/05 03:04:08;;;;;;;0.60;0.60;;;;;;;;;;1778433;79;26804;-34
2022/01/05 03:06:35;;;;;;;0.42;0.42;;;;;;;;;;1765760;80;26745;-32
2022/01/05 03:09:02;;;;;;;0.40;0.40;;;;;;;;;;1777807;79;26755;-32
2022/01/05 03:11:30;;;;;;;0.40;0.40;;;;;;;;;;1777779;78;26273;-31
2022/01/05 03:13:57;;;;;;;0.80;0.45;;;;;;;;;;1767399;79;26383;-35
2022/01/05 03:16:24;;;;;;;0.57;0.45;;;;;;;;;;1771587;80;26877;-35
2022/01/05 03:18:51;;;;;;;0.40;0.40;;;;;;;;;;1787519;79;26652;-33
2022/01/05 03:21:19;;;;;;;0.50;0.50;;;;;;;;;;1781736;79;27321;-33
2022/01/05 03:23:47;;;;;;;0.40;0.40;;;;;;;;;;1778376;79;26747;-35
2022/01/05 03:26:14;;;;;;;0.20;0.20;;;;;;;;;;1778728;79;25361;-35
2022/01/05 03:28:41;;;;;;;0.50;0.50;;;;;;;;;;1772452;79;26324;-31
2022/01/05 03:31:09;;;;;;;0.25;0.25;;;;;;;;;;1772943;79;26729;-37
2022/01/05 03:33:36;;;;;;;0.50;0.50;;;;;;;;;;1762824;79;26738;-32
2022/01/05 03:36:03;;;;;;;0.40;0.40;;;;;;;;;;1765558;79;26242;-32
2022/01/05 03:38:31;;;;;;;0.35;0.35;;;;;;;;;;1784795;79;26279;-35
2022/01/05 03:40:58;;;;;;;0.25;0.25;;;;;;;;;;1787563;79;26407;-36
2022/01/05 03:43:25;;;;;;;0.50;0.50;;;;;;;;;;1768258;79;26285;-34
2022/01/05 03:45:52;;;;;;;0.30;0.30;;;;;;;;;;1764229;79;26340;-35
2022/01/05 03:48:20;;;;;;;0.40;0.40;;;;;;;;;;1785344;79;26274;-35
2022/01/05 03:50:48;;;;;;;0.40;0.40;;;;;;;;;;1791590;79;26684;-33
2022/01/05 03:53:15;;;;;;;0.33;0.33;;;;;;;;;;1774501;78;26285;-34
2022/01/05 03:55:43;;;;;;;0.28;0.28;;;;;;;;;;1774820;80;26243;-32
2022/01/05 03:58:11;;;;;;;0.40;0.40;;;;;;;;;;1785394;79;26340;-34
2022/01/05 04:00:40;;;;;;;0.60;0.60;;;;;;;;;;1795498;79;26279;-34
2022/01/05 04:03:07;;;;;;;0.23;0.23;;;;;;;;;;1772557;79;26381;-31
2022/01/05 04:05:34;;;;;;;0.30;0.30;;;;;;;;;;1761953;79;26296;-33
2022/01/05 04:08:02;;;;;;;0.30;0.30;;;;;;;;;;1778295;79;26912;-32
2022/01/05 04:10:29;;;;;;;0.33;0.33;;;;;;;;;;1787686;79;26267;-32
2022/01/05 04:12:57;;;;;;;0.30;0.30;;;;;;;;;;1762817;79;26334;-33
2022/01/05 04:15:24;;;;;;;0.25;0.25;;;;;;;;;;1781716;79;26353;-32
2022/01/05 04:17:52;;;;;;;0.37;0.37;;;;;;;;;;1769313;79;26302;-32
2022/01/05 04:20:20;;;;;;;0.40;0.40;;;;;;;;;;1764638;80;26335;-33
2022/01/05 04:22:47;;;;;;;0.30;0.30;;;;;;;;;;1772698;79;26371;-35
2022/01/05 04:25:14;;;;;;;0.28;0.28;;;;;;;;;;1774527;79;26270;-33
2022/01/05 04:27:42;;;;;;;0.40;0.40;;;;;;;;;;1786063;79;26835;-33
2022/01/05 04:30:11;;;;;;;0.30;0.30;;;;;;;;;;1787519;79;26270;-35
2022/01/05 04:32:39;;;;;;;0.30;0.30;;;;;;;;;;1769032;79;26305;-32
2022/01/05 04:35:07;;;;;;;0.40;0.40;;;;;;;;;;1765016;79;25936;-31
2022/01/05 04:37:34;;;;;;;0.30;0.30;;;;;;;;;;1765086;79;26250;-32
2022/01/05 04:40:03;;;;;;;0.40;0.40;;;;;;;;;;1775471;79;26301;-32
2022/01/05 04:42:30;;;;;;;0.40;0.40;;;;;;;;;;1768285;79;26755;-31
2022/01/05 04:44:57;;;;;;;0.40;0.40;;;;;;;;;;1779732;79;26282;-33
2022/01/05 04:47:25;;;;;;;0.33;0.33;;;;;;;;;;1780528;79;25664;-33
2022/01/05 04:49:52;;;;;;;0.40;0.40;;;;;;;;;;1785571;79;26305;-32
2022/01/05 04:52:19;;;;;;;0.42;0.42;;;;;;;;;;1787441;79;26299;-33
2022/01/05 04:54:47;;;;;;;0.30;0.30;;;;;;;;;;1766442;79;26371;-32
2022/01/05 04:57:15;;;;;;;0.28;0.28;;;;;;;;;;1786571;79;26286;-37
2022/01/05 04:59:42;;;;;;;0.40;0.40;;;;;;;;;;1789121;79;26291;-32
2022/01/05 05:02:15;;;;;;;0.23;0.23;;;;;;;;;;1777249;79;26332;-35
2022/01/05 05:04:39;;;;;;;0.20;0.20;;;;;;;;;;1780205;79;26339;-33
2022/01/05 05:07:06;;;;;;;0.47;0.40;;;;;;;;;;1779744;79;26225;-32
2022/01/05 05:09:34;;;;;;;0.40;0.40;;;;;;;;;;1775478;79;26833;-35
2022/01/05 05:12:01;;;;;;;0.40;0.40;;;;;;;;;;1778098;79;26782;-33
2022/01/05 05:14:28;;;;;;;0.30;0.30;;;;;;;;;;1786774;79;26844;-31
2022/01/05 05:16:55;;;;;;;0.37;0.37;;;;;;;;;;1782232;79;26368;-34
2022/01/05 05:19:23;;;;;;;0.95;0.40;;;;;;;;;;1762262;79;26285;-33
2022/01/05 05:21:50;;;;;;;0.45;0.45;;;;;;;;;;1787526;79;26407;-33
2022/01/05 05:24:17;;;;;;;0.70;0.30;;;;;;;;;;1764021;79;26278;-36
2022/01/05 05:26:45;;;;;;;0.20;0.20;;;;;;;;;;1764028;79;26312;-31
2022/01/05 05:29:12;;;;;;;0.20;0.20;;;;;;;;;;1780440;79;26711;-32
2022/01/05 05:31:39;;;;;;;0.20;0.20;;;;;;;;;;1778107;79;26931;-32
2022/01/05 05:34:07;;;;;;;0.23;0.23;;;;;;;;;;1787216;79;26691;-33
2022/01/05 05:36:34;;;;;;;0.40;0.40;;;;;;;;;;1773889;79;26299;-35
2022/01/05 05:39:01;;;;;;;0.20;0.20;;;;;;;;;;1782660;79;26277;-33
2022/01/05 05:41:28;;;;;;;0.20;0.20;;;;;;;;;;1770346;79;26230;-32
2022/01/05 05:43:55;;;;;;;0.30;0.30;;;;;;;;;;1777455;80;26247;-32
2022/01/05 05:46:23;;;;;;;0.30;0.30;;;;;;;;;;1778954;79;26337;-32
2022/01/05 05:48:50;;;;;;;0.30;0.30;;;;;;;;;;1785268;79;26912;-33
2022/01/05 05:51:17;;;;;;;0.45;0.45;;;;;;;;;;1793701;79;26727;-31
2022/01/05 05:53:45;;;;;;;0.28;0.28;;;;;;;;;;1771775;78;26866;-33
2022/01/05 05:56:12;;;;;;;0.30;0.30;;;;;;;;;;1777152;79;26346;-35
2022/01/05 05:58:39;;;;;;;0.30;0.30;;;;;;;;;;1774105;79;26358;-35
2022/01/05 06:01:07;;;;;;;0.28;0.28;;;;;;;;;;1788452;79;26375;-33
2022/01/05 06:03:34;;;;;;;0.33;0.33;;;;;;;;;;1767075;79;26318;-34
2022/01/05 06:06:01;;;;;;;0.47;0.47;;;;;;;;;;1778731;79;26263;-34
2022/01/05 06:08:28;;;;;;;0.35;0.35;;;;;;;;;;1769578;79;26211;-34
2022/01/05 06:10:56;;;;;;;0.40;0.40;;;;;;;;;;1782384;79;26208;-33
2022/01/05 06:13:23;;;;;;;0.30;0.30;;;;;;;;;;1779024;79;26333;-33
2022/01/05 06:15:50;;;;;;;0.35;0.35;;;;;;;;;;1758946;80;26312;-32
2022/01/05 06:18:18;;;;;;;0.40;0.40;;;;;;;;;;1774616;79;26238;-33
2022/01/05 06:20:46;;;;;;;0.40;0.40;;;;;;;;;;1779245;79;26328;-33
2022/01/05 06:23:13;;;;;;;0.28;0.28;;;;;;;;;;1787441;78;26305;-32
2022/01/05 06:25:40;;;;;;;0.28;0.28;;;;;;;;;;1775584;79;26393;-32
2022/01/05 06:28:12;;;;;;;0.30;0.30;;;;;;;;;;1774478;79;26792;-36
2022/01/05 06:30:38;;;;;;;0.30;0.30;;;;;;;;;;1770788;79;26366;-34
2022/01/05 06:33:05;;;;;;;0.37;0.37;;;;;;;;;;1761911;79;26367;-33
2022/01/05 06:35:33;;;;;;;0.30;0.30;;;;;;;;;;1762230;79;27496;-34
2022/01/05 06:38:01;;;;;;;0.30;0.30;;;;;;;;;;1784573;79;26227;-31
2022/01/05 06:40:28;;;;;;;0.20;0.20;;;;;;;;;;1775463;79;26747;-31
2022/01/05 06:42:55;;;;;;;0.30;0.30;;;;;;;;;;1770095;79;26450;-34
2022/01/05 06:45:23;;;;;;;0.30;0.30;;;;;;;;;;1761889;79;26359;-33
2022/01/05 06:47:50;;;;;;;0.40;0.40;;;;;;;;;;1773506;79;26725;-32
2022/01/05 06:50:17;;;;;;;0.37;0.37;;;;;;;;;;1784341;79;26738;-32
2022/01/05 06:52:44;;;;;;;0.30;0.30;;;;;;;;;;1778496;79;26787;-31
2022/01/05 06:55:12;;;;;;;0.37;0.37;;;;;;;;;;1762072;79;26278;-33
2022/01/05 06:57:41;;;;;;;0.40;0.40;;;;;;;;;;1760877;79;28273;-32
2022/01/05 07:00:09;;;;;;;0.35;0.35;;;;;;;;;;1788691;79;27009;-32
2022/01/05 07:02:37;;;;;;;0.40;0.40;;;;;;;;;;1767038;79;26314;-37
2022/01/05 07:05:05;;;;;;;0.30;0.30;;;;;;;;;;1752962;80;26818;-38
2022/01/05 07:07:33;;;;;;;0.30;0.30;;;;;;;;;;1764414;80;26904;-33
2022/01/05 07:10:00;;;;;;;0.37;0.37;;;;;;;;;;1756832;80;26268;-31
2022/01/05 07:12:27;;;;;;;0.35;0.35;;;;;;;;;;1753502;80;26290;-33
2022/01/05 07:14:54;;;;;;;0.40;0.40;;;;;;;;;;1752280;80;26426;-32
2022/01/05 07:17:22;;;;;;;0.30;0.30;;;;;;;;;;1748447;80;26309;-32
2022/01/05 07:19:50;;;;;;;0.33;0.33;;;;;;;;;;1746453;80;26221;-33
2022/01/05 07:22:17;;;;;;;0.85;0.35;;;;;;;;;;1762516;80;27355;-35
2022/01/05 07:24:45;;;;;;;0.35;0.30;;;;;;;;;;1764531;80;26952;-32
2022/01/05 07:27:12;;;;;;;0.40;0.40;;;;;;;;;;1749360;80;26675;-33
2022/01/05 07:29:40;;;;;;;0.40;0.40;;;;;;;;;;1751942;81;26298;-32
2022/01/05 07:32:07;;;;;;;0.45;0.45;;;;;;;;;;1752677;80;26743;-36
2022/01/05 07:34:35;;;;;;;0.30;0.30;;;;;;;;;;1754244;80;26708;-36
2022/01/05 07:37:02;;;;;;;0.30;0.30;;;;;;;;;;1757386;80;26960;-34
2022/01/05 07:39:29;;;;;;;0.30;0.30;;;;;;;;;;1749857;81;26649;-32
2022/01/05 07:41:56;;;;;;;0.50;0.50;;;;;;;;;;1756625;80;26350;-32
2022/01/05 07:44:24;;;;;;;0.30;0.30;;;;;;;;;;1762877;80;26374;-33
2022/01/05 07:46:51;;;;;;;1.25;0.55;;;;;;;;;;1762041;80;26245;-32
2022/01/05 07:49:18;;;;;;;0.45;0.30;;;;;;;;;;1762548;80;26459;-34
2022/01/05 07:51:46;;;;;;;0.33;0.33;;;;;;;;;;1757714;80;26382;-32
2022/01/05 07:54:13;;;;;;;0.40;0.40;;;;;;;;;;1751218;79;26296;-33
2022/01/05 07:56:40;;;;;;;0.65;0.53;;;;;;;;;;1764923;80;26762;-31
2022/01/05 07:59:07;;;;;;;0.42;0.42;;;;;;;;;;1765638;80;26731;-33
2022/01/05 08:01:35;;;;;;;0.40;0.40;;;;;;;;;;1760108;79;26810;-31
2022/01/05 08:04:02;;;;;;;0.45;0.40;;;;;;;;;;1747166;81;26244;-33
2022/01/05 08:06:30;;;;;;;0.35;0.35;;;;;;;;;;1755233;79;26740;-32
2022/01/05 08:08:57;;;;;;;0.37;0.37;;;;;;;;;;1759056;79;27645;-32
2022/01/05 08:11:24;;;;;;;2.05;0.35;;;;;;;;;;1751733;81;26723;-33
2022/01/05 08:13:52;;;;;;;0.50;0.50;;;;;;;;;;1746373;79;26334;-38
2022/01/05 08:16:20;;;;;;;0.62;0.40;;;;;;;;;;1748045;79;26209;-34
2022/01/05 08:18:49;;;;;;;0.80;0.60;;;;;;;;;;1754752;79;26420;-31
2022/01/05 08:21:17;;;;;;;1.87;0.60;;;;;;;;;;1771788;80;26234;-31
2022/01/05 08:23:44;;;;;;;9.28;0.70;;;;;;;;;;1762303;80;26647;-34
2022/01/05 08:26:12;;;;;;;7.30;0.72;;;;;;;;;;1749271;81;26262;-33
2022/01/05 08:28:40;;;;;;;6.20;0.80;;;;;;;;;;1753714;80;26344;-28
2022/01/05 08:31:08;;;;;;;6.62;1.40;;;;;;;;;;1756865;80;26353;-35
2022/01/05 08:33:35;;;;;;;5.37;1.40;;;;;;;;;;1760556;80;26764;-31
2022/01/05 08:36:03;;;;;;;2.50;1.70;;;;;;;;;;1750972;80;26289;-32
2022/01/05 08:38:32;;;;;;;3.42;1.42;;;;;;;;;;1769947;79;26352;-30
2022/01/05 08:40:59;;;;;;;3.92;1.60;;;;;;;;;;1761703;80;26310;-31
2022/01/05 08:43:27;;;;;;;7.75;1.80;;;;;;;;;;1752728;80;26297;-34
2022/01/05 08:45:54;;;;;;;7.30;1.35;;;;;;;;;;1746122;80;26746;-36
2022/01/05 08:48:21;;;;;;;4.67;1.32;;;;;;;;;;1746488;80;26318;-33
2022/01/05 08:50:51;;;;;;;3.92;1.10;;;;;;;;;;1754021;79;26398;-34
2022/01/05 08:53:18;;;;;;;3.12;1.17;;;;;;;;;;1770827;79;26753;-30
2022/01/05 08:55:47;;;;;;;1.62;1.00;;;;;;;;;;1760071;80;26286;-30
2022/01/05 08:58:15;;;;;;;4.40;1.00;;;;;;;;;;1751924;81;25345;-31
2022/01/05 09:00:43;;;;;;;3.75;1.17;;;;;;;;;;1776342;79;26346;-33
2022/01/05 09:03:12;;;;;;;1.72;1.10;;;;;;;;;;1751309;80;26271;-31
2022/01/05 09:05:39;;;;;;;2.67;1.00;;;;;;;;;;1750820;80;26324;-32
2022/01/05 09:08:07;;;;;;;1.57;1.10;;;;;;;;;;1746108;80;26746;-32
2022/01/05 09:10:34;;;;;;;1.52;1.17;;;;;;;;;;1751786;80;26368;-34
2022/01/05 09:13:01;;;;;;;1.52;0.80;;;;;;;;;;1738060;80;26780;-34
2022/01/05 09:15:30;;;;;;;1.45;0.90;;;;;;;;;;1744351;80;26336;-34
2022/01/05 09:17:57;;;;;;;4.08;0.82;;;;;;;;;;1743087;80;26312;-32
2022/01/05 09:20:25;;;;;;;1.17;0.80;;;;;;;;;;1729313;80;26276;-34
2022/01/05 09:22:52;;;;;;;3.05;1.00;;;;;;;;;;1743230;80;26283;-34
2022/01/05 09:25:19;;;;;;;2.90;1.00;;;;;;;;;;1736517;80;26285;-32
2022/01/05 09:27:47;;;;;;;2.67;0.90;;;;;;;;;;1741098;80;26372;-30
2022/01/05 09:30:15;;;;;;;4.05;0.80;;;;;;;;;;1744827;80;26321;-31
2022/01/05 09:32:43;;;;;;;2.60;0.90;;;;;;;;;;1751900;80;26336;-30
2022/01/05 09:35:14;;;;;;;2.65;0.80;;;;;;;;;;1737681;80;26293;-30
2022/01/05 09:37:48;;;;;;;2.02;0.80;;;;;;;;;;1748894;80;26757;-34
2022/01/05 09:42:55;;;;;;;0.70;0.70;;;;;;;;;;1740357;80;26909;-30
2022/01/05 09:45:23;;;;;;;2.27;0.80;;;;;;;;;;1733563;80;26222;-31
2022/01/05 09:47:52;;;;;;;0.70;0.70;;;;;;;;;;1728558;82;26776;-33
2022/01/05 09:50:20;;;;;;;1.27;0.60;;;;;;;;;;1736081;80;26277;-34
2022/01/05 09:52:48;;;;;;;0.80;0.80;;;;;;;;;;1736592;80;26273;-34
2022/01/05 09:55:16;;;;;;;0.70;0.70;;;;;;;;;;1727642;82;28839;-31
2022/01/05 09:57:45;;;;;;;1.85;0.57;;;;;;;;;;1733831;82;26316;-33
2022/01/05 10:00:13;;;;;;;3.40;1.10;;;;;;;;;;1746666;80;26247;-31
2022/01/05 10:02:42;;;;;;;2.65;0.57;;;;;;;;;;1753963;80;27449;-34
2022/01/05 10:05:10;;;;;;;0.70;0.60;;;;;;;;;;1730485;80;26292;-35
2022/01/05 10:07:38;;;;;;;1.72;0.80;;;;;;;;;;1738847;80;26288;-32
2022/01/05 10:10:06;;;;;;;0.50;0.50;;;;;;;;;;1748231;80;26957;-37
2022/01/05 10:12:33;;;;;;;1.32;0.60;;;;;;;;;;1732685;80;26265;-35
2022/01/05 10:15:00;;;;;;;1.07;0.60;;;;;;;;;;1730881;80;26776;-32
2022/01/05 10:17:29;;;;;;;2.27;0.60;;;;;;;;;;1735171;80;26827;-33
2022/01/05 10:20:00;;;;;;;0.62;0.62;;;;;;;;;;1731543;80;26272;-33
2022/01/05 10:22:35;;;;;;;1.65;0.50;;;;;;;;;;1752595;80;26347;-33
2022/01/05 10:25:04;;;;;;;0.55;0.55;;;;;;;;;;1740154;80;26874;-32
2022/01/05 10:27:31;;;;;;;0.60;0.60;;;;;;;;;;1747611;80;26327;-33
2022/01/05 10:30:04;;;;;;;1.40;0.40;;;;;;;;;;1741239;81;26343;-33
2022/01/05 10:32:33;;;;;;;0.55;0.47;;;;;;;;;;1744562;80;26317;-33
2022/01/05 10:35:05;;;;;;;0.40;0.40;;;;;;;;;;1748856;80;26320;-31
2022/01/05 10:37:33;;;;;;;0.50;0.40;;;;;;;;;;1745775;80;26325;-34
2022/01/05 10:40:04;;;;;;;0.70;0.53;;;;;;;;;;1740423;80;26847;-31
2022/01/05 10:42:32;;;;;;;0.90;0.88;;;;;;;;;;1744941;80;26320;-33
2022/01/05 10:45:02;;;;;;;1.75;0.60;;;;;;;;;;1745941;80;26297;-30
2022/01/05 10:47:29;;;;;;;3.10;0.40;;;;;;;;;;1744620;80;26255;-32
2022/01/05 10:49:56;;;;;;;1.65;0.50;;;;;;;;;;1748603;80;26745;-29
2022/01/05 10:52:26;;;;;;;1.22;0.57;;;;;;;;;;1744655;80;26748;-35
2022/01/05 10:54:54;;;;;;;0.65;0.40;;;;;;;;;;1744508;80;26747;-34
2022/01/05 10:57:22;;;;;;;1.70;0.93;;;;;;;;;;1736980;80;26320;-37
2022/01/05 10:59:54;;;;;;;1.12;0.53;;;;;;;;;;1745705;80;26505;-31
2022/01/05 11:02:25;;;;;;;0.57;0.57;;;;;;;;;;1747981;80;26290;-34
2022/01/05 11:04:53;;;;;;;0.50;0.50;;;;;;;;;;1745093;80;26301;-37
2022/01/05 11:07:22;;;;;;;1.27;0.33;;;;;;;;;;1756331;79;26358;-37
2022/01/05 11:09:54;;;;;;;0.50;0.50;;;;;;;;;;1762632;79;26294;-35
2022/01/05 11:12:23;;;;;;;0.45;0.45;;;;;;;;;;1756921;79;27019;-33
2022/01/05 11:14:50;;;;;;;0.50;0.33;;;;;;;;;;1759354;79;26802;-35
2022/01/05 11:17:18;;;;;;;0.65;0.57;;;;;;;;;;1755475;79;27013;-33
2022/01/05 11:19:45;;;;;;;0.40;0.40;;;;;;;;;;1759036;79;27288;-32
2022/01/05 11:22:18;;;;;;;0.55;0.42;;;;;;;;;;1754655;79;26420;-33
2022/01/05 11:24:46;;;;;;;0.70;0.50;;;;;;;;;;1753654;79;26301;-33
2022/01/05 11:27:15;;;;;;;1.47;0.50;;;;;;;;;;1758019;79;27413;-33
2022/01/05 11:29:42;;;;;;;0.50;0.50;;;;;;;;;;1757688;79;26270;-33
2022/01/05 11:32:11;;;;;;;3.98;0.47;;;;;;;;;;1758542;79;26381;-29
2022/01/05 11:34:38;;;;;;;3.10;0.47;;;;;;;;;;1754852;78;26320;-33
2022/01/05 11:37:07;;;;;;;2.12;0.40;;;;;;;;;;1754407;79;26350;-33
2022/01/05 11:39:36;;;;;;;2.60;0.60;;;;;;;;;;1756954;79;26239;-30
2022/01/05 11:42:04;;;;;;;6.75;0.70;;;;;;;;;;1759198;79;26294;-31
2022/01/05 11:44:33;;;;;;;4.12;0.60;;;;;;;;;;1751975;79;26717;-32
2022/01/05 11:47:02;;;;;;;4.25;0.50;;;;;;;;;;1754227;79;26323;-30
2022/01/05 11:49:30;;;;;;;1.25;0.40;;;;;;;;;;1751509;79;26372;-34
2022/01/05 11:51:59;;;;;;;1.00;0.50;;;;;;;;;;1750019;79;26600;-31
2022/01/05 11:54:32;;;;;;;0.55;0.40;;;;;;;;;;1752013;79;26251;-32
2022/01/05 11:57:10;;;;;;;0.20;0.20;;;;;;;;;;1751281;81;26730;-32
2022/01/05 11:59:39;;;;;;;0.98;0.40;;;;;;;;;;1757487;79;26248;-31
2022/01/05 12:02:08;;;;;;;0.28;0.28;;;;;;;;;;1754225;79;26282;-35
2022/01/05 12:04:36;;;;;;;1.62;0.30;;;;;;;;;;1751375;80;26305;-35
2022/01/05 12:07:06;;;;;;;0.62;0.25;;;;;;;;;;1747284;80;26280;-35
2022/01/05 12:09:35;;;;;;;0.50;0.50;;;;;;;;;;1755001;79;26664;-35
2022/01/05 12:12:03;;;;;;;0.40;0.40;;;;;;;;;;1757047;80;26362;-35
2022/01/05 12:14:32;;;;;;;1.20;0.40;;;;;;;;;;1740765;80;26342;-28
2022/01/05 12:17:07;;;;;;;0.25;0.25;;;;;;;;;;1757059;80;26830;-29
2022/01/05 12:19:35;;;;;;;0.33;0.33;;;;;;;;;;1761053;80;26948;-31
2022/01/05 12:22:04;;;;;;;1.37;0.30;;;;;;;;;;1755672;80;26306;-28
2022/01/05 12:24:42;;;;;;;0.45;0.45;;;;;;;;;;1740065;80;28367;-32
2022/01/05 12:27:17;;;;;;;0.45;0.40;;;;;;;;;;1737725;80;26802;-35
2022/01/05 12:29:46;;;;;;;0.30;0.30;;;;;;;;;;1757872;80;26283;-35
2022/01/05 12:32:14;;;;;;;0.30;0.30;;;;;;;;;;1763904;80;26744;-35
2022/01/05 12:34:55;;;;;;;0.30;0.30;;;;;;;;;;1752351;80;27465;-35
2022/01/05 12:37:42;;;;;;;1.00;0.40;;;;;;;;;;1747047;80;26233;-36
2022/01/05 12:40:28;;;;;;;0.35;0.35;;;;;;;;;;1703248;83;26331;-42
2022/01/05 12:42:57;;;;;;;0.30;0.30;;;;;;;;;;1699042;82;26320;-33
2022/01/05 12:45:38;;;;;;;0.30;0.30;;;;;;;;;;1727516;80;26271;-31
2022/01/05 12:48:05;;;;;;;0.65;0.37;;;;;;;;;;1731052;80;26369;-33
2022/01/05 12:50:33;;;;;;;0.40;0.40;;;;;;;;;;1756019;80;26307;-32
2022/01/05 12:53:00;;;;;;;0.30;0.30;;;;;;;;;;1765330;80;26331;-33
2022/01/05 12:55:28;;;;;;;1.00;0.60;;;;;;;;;;1763671;80;26306;-33
2022/01/05 12:57:56;;;;;;;11.25;0.70;;;;;;;;;;1759275;80;26308;-31
2022/01/05 13:00:23;;;;;;;2.65;0.55;;;;;;;;;;1768711;79;26233;-34
2022/01/05 13:02:51;;;;;;;2.42;0.50;;;;;;;;;;1767330;80;26283;-28
2022/01/05 13:05:19;;;;;;;0.40;0.40;;;;;;;;;;1760882;80;26320;-30
2022/01/05 13:07:48;;;;;;;0.50;0.50;;;;;;;;;;1757627;80;26338;-31
2022/01/05 13:10:16;;;;;;;5.87;0.47;;;;;;;;;;1771288;79;26299;-31
2022/01/05 13:12:44;;;;;;;1.60;0.47;;;;;;;;;;1757176;79;26303;-30
2022/01/05 13:15:11;;;;;;;1.67;0.50;;;;;;;;;;1759729;79;26341;-32
2022/01/05 13:17:40;;;;;;;0.40;0.40;;;;;;;;;;1763438;79;26275;-31
2022/01/05 13:20:11;;;;;;;0.40;0.40;;;;;;;;;;1759758;79;26412;-34
2022/01/05 13:22:55;;;;;;;1.25;0.37;;;;;;;;;;1758966;80;26335;-31
2022/01/05 13:25:25;;;;;;;1.35;0.45;;;;;;;;;;1756878;80;26362;-32
2022/01/05 13:27:51;;;;;;;1.25;0.40;;;;;;;;;;1757475;80;26302;-32
2022/01/05 13:30:22;;;;;;;0.40;0.40;;;;;;;;;;1757643;79;26295;-32
2022/01/05 13:32:51;;;;;;;1.10;0.65;;;;;;;;;;1754266;79;26357;-35
2022/01/05 13:35:19;;;;;;;1.12;0.42;;;;;;;;;;1755086;80;26704;-31
2022/01/05 13:37:48;;;;;;;0.60;0.40;;;;;;;;;;1755979;79;26430;-31
2022/01/05 13:40:16;;;;;;;0.50;0.50;;;;;;;;;;1749665;81;26231;-30
2022/01/05 13:42:45;;;;;;;3.10;0.50;;;;;;;;;;1758029;80;27474;-30
2022/01/05 13:45:14;;;;;;;0.50;0.50;;;;;;;;;;1770954;80;26283;-29
2022/01/05 13:47:41;;;;;;;0.93;0.60;;;;;;;;;;1760180;80;26311;-30
2022/01/05 13:50:13;;;;;;;0.88;0.60;;;;;;;;;;1768590;80;26717;-31
2022/01/05 13:52:41;;;;;;;0.90;0.62;;;;;;;;;;1767823;80;26295;-30
2022/01/05 13:55:09;;;;;;;0.70;0.50;;;;;;;;;;1748964;80;26857;-32
2022/01/05 13:57:37;;;;;;;1.50;0.80;;;;;;;;;;1753268;80;26912;-31
2022/01/05 14:00:06;;;;;;;0.57;0.57;;;;;;;;;;1765550;79;26294;-31
2022/01/05 14:02:33;;;;;;;2.83;0.60;;;;;;;;;;1755790;80;26778;-39
2022/01/05 14:05:01;;;;;;;0.90;0.75;;;;;;;;;;1752638;80;26727;-32
2022/01/05 14:07:29;;;;;;;1.25;0.70;;;;;;;;;;1743196;80;26328;-31
2022/01/05 14:10:05;;;;;;;2.25;0.78;;;;;;;;;;1740632;80;27504;-32
2022/01/05 14:12:34;;;;;;;1.30;0.62;;;;;;;;;;1728683;80;26370;-32
2022/01/05 14:15:02;;;;;;;5.83;0.82;;;;;;;;;;1754858;80;26285;-30
2022/01/05 14:17:31;;;;;;;6.03;1.00;;;;;;;;;;1735676;80;26635;-29
2022/01/05 14:20:18;;;;;;;3.75;0.80;;;;;;;;;;1748807;80;26685;-30
2022/01/05 14:22:47;;;;;;;7.42;0.98;;;;;;;;;;1740155;80;26306;-45
2022/01/05 14:25:14;;;;;;;1.10;0.78;;;;;;;;;;1743063;80;26272;-33
2022/01/05 14:27:44;;;;;;;4.22;1.00;;;;;;;;;;1728940;80;26288;-33
2022/01/05 14:30:12;;;;;;;6.15;0.82;;;;;;;;;;1730423;80;26296;-33
2022/01/05 14:32:40;;;;;;;1.15;0.70;;;;;;;;;;1748229;80;26307;-30
2022/01/05 14:35:20;;;;;;;9.80;0.82;;;;;;;;;;1741039;80;26363;-35
2022/01/05 14:37:56;;;;;;;2.75;0.70;;;;;;;;;;1747346;80;26749;-33
2022/01/05 14:40:26;;;;;;;5.25;0.80;;;;;;;;;;1743098;80;26798;-32
2022/01/05 14:42:55;;;;;;;3.60;0.90;;;;;;;;;;1744044;80;26303;-32
2022/01/05 14:45:22;;;;;;;1.82;0.80;;;;;;;;;;1748486;80;26286;-38
2022/01/05 14:47:50;;;;;;;0.60;0.60;;;;;;;;;;1744914;80;26266;-32
2022/01/05 14:50:18;;;;;;;3.30;0.80;;;;;;;;;;1740630;80;26241;-35
2022/01/05 14:52:46;;;;;;;1.00;0.88;;;;;;;;;;1741068;80;26350;-34